createdAt,value
2023-03-30T00:02:22.571Z,5.38
2023-03-30T00:04:53.042Z,4.20
2023-03-30T00:07:21.417Z,4.60
2023-03-30T00:09:49.571Z,5.57
2023-03-30T00:12:21.502Z,4.45
2023-03-30T00:14:50.346Z,4.90
2023-03-30T00:17:18.667Z,4.82
2023-03-30T00:19:46.924Z,3.85
2023-03-30T00:22:19.004Z,5.20
2023-03-30T00:24:47.185Z,4.53
2023-03-30T00:27:15.480Z,4.65
2023-03-30T00:29:43.666Z,4.35
2023-03-30T00:32:12.098Z,4.18
2023-03-30T00:34:40.500Z,6.50
2023-03-30T00:37:09.183Z,4.95
2023-03-30T00:39:38.952Z,5.78
2023-03-30T00:42:07.219Z,4.25
2023-03-30T00:45:07.679Z,6.13
2023-03-30T00:47:38.838Z,5.40
2023-03-30T00:50:09.467Z,5.32
2023-03-30T00:52:38.291Z,5.63
2023-03-30T00:55:11.280Z,5.07
2023-03-30T00:57:43.268Z,6.28
2023-03-30T01:00:14.681Z,5.88
2023-03-30T01:02:47.051Z,5.25
2023-03-30T01:05:15.407Z,5.65
2023-03-30T01:07:46.347Z,5.13
2023-03-30T01:10:16.364Z,5.35
2023-03-30T01:12:45.206Z,6.00
2023-03-30T01:15:15.296Z,6.28
2023-03-30T01:18:05.219Z,4.68
2023-03-30T01:20:59.356Z,5.47
2023-03-30T01:24:18.787Z,5.63
2023-03-30T01:26:58.082Z,5.88
2023-03-30T01:29:52.904Z,6.18
2023-03-30T01:32:41.658Z,5.15
2023-03-30T01:35:47.555Z,4.97
2023-03-30T01:38:55.709Z,4.70
2023-03-30T01:41:33.493Z,4.65
2023-03-30T01:44:07.364Z,5.88
2023-03-30T01:46:42.456Z,5.40
2023-03-30T01:49:17.081Z,5.15
2023-03-30T01:51:56.277Z,4.35
2023-03-30T01:54:26.820Z,5.15
2023-03-30T01:57:00.637Z,5.70
2023-03-30T01:59:35.953Z,4.95
2023-03-30T02:02:07.331Z,5.30
2023-03-30T02:04:39.951Z,5.43
2023-03-30T02:07:12.075Z,4.88
2023-03-30T02:09:44.863Z,4.85
2023-03-30T02:12:15.053Z,3.88
2023-03-30T02:14:45.566Z,4.22
2023-03-30T02:17:18.237Z,3.88
2023-03-30T02:19:47.573Z,3.70
2023-03-30T02:22:18.910Z,4.45
2023-03-30T02:24:50.276Z,3.67
2023-03-30T02:27:22.477Z,4.90
2023-03-30T02:29:50.878Z,4.25
2023-03-30T02:32:43.254Z,3.97
2023-03-30T02:35:28.294Z,4.90
2023-03-30T02:38:17.086Z,4.32
2023-03-30T02:40:56.366Z,6.68
2023-03-30T02:43:33.320Z,4.22
2023-03-30T02:46:15.236Z,3.55
2023-03-30T02:48:49.238Z,4.10
2023-03-30T02:51:30.024Z,3.55
2023-03-30T02:54:23.982Z,3.58
2023-03-30T02:57:15.685Z,3.88
2023-03-30T02:59:52.160Z,3.58
2023-03-30T03:02:23.570Z,4.68
2023-03-30T03:05:04.038Z,4.55
2023-03-30T03:07:57.591Z,4.60
2023-03-30T03:10:25.778Z,4.13
2023-03-30T03:13:06.157Z,4.35
2023-03-30T03:15:37.897Z,3.97
2023-03-30T03:18:12.861Z,4.47
2023-03-30T03:20:41.793Z,3.33
2023-03-30T03:23:10.623Z,4.28
2023-03-30T03:25:48.308Z,4.22
2023-03-30T03:28:18.361Z,4.57
2023-03-30T03:30:51.804Z,3.78
2023-03-30T03:33:23.762Z,3.28
2023-03-30T03:36:12.619Z,3.92
2023-03-30T03:38:48.226Z,3.97
2023-03-30T03:41:17.955Z,4.05
2023-03-30T03:43:46.786Z,3.72
2023-03-30T03:46:19.869Z,3.72
2023-03-30T03:48:48.216Z,3.88
2023-03-30T03:51:16.454Z,4.07
2023-03-30T03:53:44.892Z,3.70
2023-03-30T03:56:14.938Z,4.25
2023-03-30T03:58:43.249Z,4.18
2023-03-30T04:01:14.344Z,5.88
2023-03-30T04:03:44.085Z,3.72
2023-03-30T04:06:12.476Z,4.35
2023-03-30T04:08:40.968Z,4.32
2023-03-30T04:11:23.305Z,5.15
2023-03-30T04:14:20.639Z,4.75
2023-03-30T04:17:14.808Z,4.25
2023-03-30T04:20:06.076Z,4.32
2023-03-30T04:22:53.487Z,4.25
2023-03-30T04:25:25.623Z,4.15
2023-03-30T04:28:21.614Z,3.22
2023-03-30T04:31:10.592Z,3.22
2023-03-30T04:34:02.552Z,2.55
2023-03-30T04:36:54.644Z,4.03
2023-03-30T04:39:41.499Z,3.35
2023-03-30T04:42:14.158Z,3.85
2023-03-30T04:45:12.682Z,3.58
2023-03-30T04:48:11.631Z,3.30
2023-03-30T04:51:06.760Z,3.67
2023-03-30T04:53:57.521Z,3.28
2023-03-30T04:56:44.213Z,3.05
2023-03-30T04:59:50.911Z,3.78
2023-03-30T05:02:37.839Z,3.80
2023-03-30T05:05:21.133Z,3.08
2023-03-30T05:08:01.766Z,3.60
2023-03-30T05:10:52.489Z,2.58
2023-03-30T05:13:30.322Z,3.30
2023-03-30T05:16:10.528Z,4.40
2023-03-30T05:18:41.713Z,3.10
2023-03-30T05:21:09.925Z,2.83
2023-03-30T05:23:56.989Z,3.10
2023-03-30T05:26:49.699Z,3.17
2023-03-30T05:29:23.617Z,2.88
2023-03-30T05:32:12.243Z,3.00
2023-03-30T05:35:02.504Z,2.78
2023-03-30T05:37:39.534Z,3.00
2023-03-30T05:40:28.050Z,2.97
2023-03-30T05:43:09.560Z,3.35
2023-03-30T05:46:03.971Z,3.15
2023-03-30T05:48:42.939Z,3.30
2023-03-30T05:51:26.759Z,3.00
2023-03-30T05:54:04.599Z,4.00
2023-03-30T05:56:56.104Z,3.90
2023-03-30T05:59:35.650Z,5.10
2023-03-30T06:02:24.529Z,5.43
2023-03-30T06:04:58.066Z,4.70
2023-03-30T06:07:26.440Z,4.95
2023-03-30T06:09:54.856Z,4.82
2023-03-30T06:12:31.547Z,5.53
2023-03-30T06:15:02.706Z,5.35
2023-03-30T06:17:52.610Z,4.50
2023-03-30T06:20:26.193Z,4.43
2023-03-30T06:22:54.757Z,3.58
2023-03-30T06:25:29.611Z,3.80
2023-03-30T06:27:58.349Z,4.47
2023-03-30T06:30:29.285Z,8.93
2023-03-30T06:33:02.477Z,8.30
2023-03-30T06:35:57.941Z,5.82
2023-03-30T06:38:26.410Z,4.68
2023-03-30T06:40:56.965Z,5.72
2023-03-30T06:43:27.432Z,4.18
2023-03-30T06:46:11.311Z,3.92
2023-03-30T06:48:44.171Z,7.07
2023-03-30T06:51:38.025Z,6.20
2023-03-30T06:54:08.085Z,6.28
2023-03-30T06:56:38.563Z,4.65
2023-03-30T06:59:10.590Z,3.65
2023-03-30T07:02:18.209Z,3.70
2023-03-30T07:05:13.045Z,7.70
2023-03-30T07:07:59.639Z,3.80
2023-03-30T07:10:28.357Z,4.22
2023-03-30T07:12:59.709Z,3.47
2023-03-30T07:15:31.893Z,3.70
2023-03-30T07:18:01.515Z,3.33
2023-03-30T07:20:32.501Z,3.08
2023-03-30T07:23:27.131Z,2.85
2023-03-30T07:25:58.225Z,2.85
2023-03-30T07:28:41.399Z,2.80
2023-03-30T07:31:13.782Z,2.20
2023-03-30T07:33:45.621Z,2.90
2023-03-30T07:36:17.539Z,2.47
2023-03-30T07:38:46.450Z,2.33
2023-03-30T07:41:17.918Z,2.33
2023-03-30T07:43:49.826Z,2.72
2023-03-30T07:46:19.236Z,2.75
2023-03-30T07:48:55.241Z,2.67
2023-03-30T07:51:25.857Z,2.72
2023-03-30T07:54:05.273Z,2.78
2023-03-30T07:56:52.561Z,2.20
2023-03-30T07:59:24.530Z,2.63
2023-03-30T08:01:58.096Z,3.17
2023-03-30T08:04:44.875Z,2.72
2023-03-30T08:07:16.554Z,3.47
2023-03-30T08:09:46.297Z,2.83
2023-03-30T08:12:14.587Z,2.88
2023-03-30T08:14:42.840Z,3.58
2023-03-30T08:17:11.074Z,3.63
2023-03-30T08:19:39.348Z,2.90
2023-03-30T08:22:09.318Z,3.80
2023-03-30T08:24:37.579Z,3.35
2023-03-30T08:27:06.009Z,3.38
2023-03-30T08:29:35.514Z,3.13
2023-03-30T08:32:04.490Z,3.20
2023-03-30T08:34:34.316Z,3.17
2023-03-30T08:37:05.624Z,3.15
2023-03-30T08:39:36.435Z,3.35
2023-03-30T08:42:30.770Z,3.05
2023-03-30T08:45:05.238Z,3.47
2023-03-30T08:47:37.572Z,3.85
2023-03-30T08:50:09.565Z,3.70
2023-03-30T08:52:38.598Z,3.65
2023-03-30T08:55:21.223Z,3.50
2023-03-30T08:57:53.711Z,3.28
2023-03-30T09:00:32.191Z,3.63
2023-03-30T09:03:11.552Z,3.00
2023-03-30T09:05:44.683Z,2.20
2023-03-30T09:08:17.330Z,1.73
2023-03-30T09:10:52.729Z,1.38
2023-03-30T09:13:25.802Z,1.60
2023-03-30T09:15:58.846Z,1.65
2023-03-30T09:18:31.501Z,1.77
2023-03-30T09:21:01.485Z,1.40
2023-03-30T09:23:31.087Z,1.40
2023-03-30T09:26:09.726Z,1.35
2023-03-30T09:28:48.255Z,1.50
2023-03-30T09:31:21.691Z,1.92
2023-03-30T09:34:02.107Z,1.38
2023-03-30T09:36:38.132Z,1.60
2023-03-30T09:39:11.256Z,2.20
2023-03-30T09:41:58.101Z,1.60
2023-03-30T09:44:31.254Z,1.77
2023-03-30T09:47:00.840Z,1.73
2023-03-30T09:49:30.442Z,1.88
2023-03-30T09:52:04.231Z,2.20
2023-03-30T09:54:42.240Z,2.20
2023-03-30T09:57:26.914Z,1.85
2023-03-30T09:59:57.798Z,1.75
2023-03-30T10:02:27.884Z,1.70
2023-03-30T10:05:25.629Z,1.90
2023-03-30T10:08:25.137Z,1.40
2023-03-30T10:10:55.783Z,2.00
2023-03-30T10:13:34.002Z,1.58
2023-03-30T10:16:07.871Z,2.20
2023-03-30T10:18:41.448Z,1.60
2023-03-30T10:21:27.554Z,2.20
2023-03-30T10:24:23.238Z,2.05
2023-03-30T10:26:53.822Z,1.77
2023-03-30T10:29:50.770Z,1.85
2023-03-30T10:32:37.809Z,1.35
2023-03-30T10:35:10.731Z,1.48
2023-03-30T10:38:01.719Z,1.70
2023-03-30T10:40:37.641Z,1.40
2023-03-30T10:43:08.810Z,1.75
2023-03-30T10:45:49.791Z,1.60
2023-03-30T10:48:38.569Z,1.63
2023-03-30T10:51:14.734Z,1.60
2023-03-30T10:53:52.940Z,1.52
2023-03-30T10:56:31.229Z,1.63
2023-03-30T10:59:28.436Z,1.55
2023-03-30T11:02:18.121Z,1.58
2023-03-30T11:04:51.324Z,1.35
2023-03-30T11:07:29.277Z,1.42
2023-03-30T11:10:04.173Z,1.45
2023-03-30T11:12:40.291Z,1.52
2023-03-30T11:15:13.312Z,0.70
2023-03-30T11:17:51.131Z,3.53
2023-03-30T11:20:28.394Z,1.40
2023-03-30T11:23:04.684Z,1.40
2023-03-30T11:25:37.611Z,1.08
2023-03-30T11:28:21.920Z,1.23
2023-03-30T11:30:54.923Z,1.05
2023-03-30T11:33:37.545Z,1.40
2023-03-30T11:36:18.539Z,1.20
2023-03-30T11:38:54.952Z,1.50
2023-03-30T11:41:29.702Z,1.70
2023-03-30T11:43:58.024Z,1.70
2023-03-30T11:46:29.519Z,1.20
2023-03-30T11:49:14.479Z,1.20
2023-03-30T11:52:04.563Z,1.50
2023-03-30T11:55:02.408Z,1.50
2023-03-30T11:57:37.816Z,1.65
2023-03-30T12:00:25.045Z,1.75
2023-03-30T12:03:05.701Z,1.40
2023-03-30T12:05:38.272Z,1.17
2023-03-30T12:08:24.799Z,1.10
2023-03-30T12:11:07.492Z,1.33
2023-03-30T12:13:50.176Z,1.15
2023-03-30T12:16:28.179Z,1.35
2023-03-30T12:19:08.767Z,1.58
2023-03-30T12:22:04.137Z,1.83
2023-03-30T12:24:57.646Z,1.13
2023-03-30T12:27:29.033Z,1.33
2023-03-30T12:30:15.186Z,1.52
2023-03-30T12:33:03.273Z,1.40
2023-03-30T12:35:54.895Z,1.90
2023-03-30T12:38:48.122Z,1.27
2023-03-30T12:41:22.955Z,1.63
2023-03-30T12:44:17.841Z,1.48
2023-03-30T12:47:35.689Z,1.30
2023-03-30T12:50:30.103Z,1.80
2023-03-30T12:53:46.308Z,1.73
2023-03-30T12:56:50.558Z,1.73
2023-03-30T12:59:46.265Z,0.90
2023-03-30T13:03:02.797Z,2.20
2023-03-30T13:05:33.785Z,1.38
2023-03-30T13:08:05.137Z,1.55
2023-03-30T13:10:43.074Z,1.67
2023-03-30T13:13:24.830Z,1.60
2023-03-30T13:15:57.155Z,1.65
2023-03-30T13:18:40.748Z,1.73
2023-03-30T13:21:23.984Z,3.00
2023-03-30T13:24:06.650Z,1.85
2023-03-30T13:26:45.363Z,2.05
2023-03-30T13:29:18.658Z,2.90
2023-03-30T13:32:19.375Z,2.22
2023-03-30T13:35:08.837Z,2.40
2023-03-30T13:38:10.865Z,2.45
2023-03-30T13:41:07.559Z,2.53
2023-03-30T13:43:48.773Z,2.35
2023-03-30T13:46:28.072Z,2.70
2023-03-30T13:49:18.117Z,2.67
2023-03-30T13:51:47.065Z,1.80
2023-03-30T13:54:22.790Z,2.40
2023-03-30T13:56:56.805Z,2.40
2023-03-30T13:59:30.570Z,2.17
2023-03-30T14:02:03.096Z,3.03
2023-03-30T14:04:32.754Z,2.88
2023-03-30T14:07:06.307Z,2.45
2023-03-30T14:09:36.145Z,3.08
2023-03-30T14:12:07.683Z,3.00
2023-03-30T14:14:39.058Z,2.53
2023-03-30T14:17:19.086Z,1.77
2023-03-30T14:20:02.490Z,2.63
2023-03-30T14:22:32.315Z,2.22
2023-03-30T14:25:02.474Z,3.00
2023-03-30T14:27:34.604Z,2.90
2023-03-30T14:30:04.382Z,2.75
2023-03-30T14:32:34.049Z,3.88
2023-03-30T14:35:08.384Z,2.88
2023-03-30T14:37:37.304Z,3.33
2023-03-30T14:40:12.438Z,2.90
2023-03-30T14:42:41.826Z,3.15
2023-03-30T14:45:12.325Z,2.80
2023-03-30T14:47:43.830Z,2.53
2023-03-30T14:50:15.193Z,3.08
2023-03-30T14:52:44.628Z,2.85
2023-03-30T14:55:28.928Z,2.85
2023-03-30T14:57:57.302Z,3.15
2023-03-30T15:00:26.194Z,2.88
2023-03-30T15:03:01.831Z,2.80
2023-03-30T15:05:32.267Z,2.67
2023-03-30T15:08:00.498Z,1.92
2023-03-30T15:10:36.408Z,1.00
2023-03-30T15:13:13.485Z,2.10
2023-03-30T15:15:41.899Z,1.73
2023-03-30T15:18:21.051Z,1.67
2023-03-30T15:20:49.680Z,1.38
2023-03-30T15:23:19.538Z,1.95
2023-03-30T15:25:49.325Z,2.30
2023-03-30T15:28:20.482Z,3.00
2023-03-30T15:30:52.251Z,1.73
2023-03-30T15:33:25.184Z,1.83
2023-03-30T15:35:54.742Z,2.42
2023-03-30T15:38:31.199Z,2.63
2023-03-30T15:40:59.423Z,1.77
2023-03-30T15:43:33.380Z,2.15
2023-03-30T15:46:03.370Z,2.75
2023-03-30T15:48:43.237Z,2.05
2023-03-30T15:51:16.395Z,2.25
2023-03-30T15:53:50.329Z,3.13
2023-03-30T15:56:22.636Z,2.83
2023-03-30T15:58:52.685Z,4.93
2023-03-30T16:01:23.348Z,2.70
2023-03-30T16:04:02.924Z,4.15
2023-03-30T16:06:31.101Z,3.88
2023-03-30T16:08:59.254Z,2.03
2023-03-30T16:11:27.668Z,2.53
2023-03-30T16:13:55.981Z,3.72
2023-03-30T16:16:24.228Z,2.50
2023-03-30T16:18:52.546Z,2.97
2023-03-30T16:21:24.471Z,3.58
2023-03-30T16:23:52.680Z,2.40
2023-03-30T16:26:21.478Z,3.00
2023-03-30T16:28:56.692Z,4.03
2023-03-30T16:31:25.534Z,2.85
2023-03-30T16:33:53.952Z,4.07
2023-03-30T16:36:25.177Z,3.63
2023-03-30T16:38:56.347Z,3.45
2023-03-30T16:41:24.979Z,3.78
2023-03-30T16:43:53.165Z,4.25
2023-03-30T16:46:22.709Z,4.18
2023-03-30T16:48:50.917Z,3.85
2023-03-30T16:51:21.099Z,3.58
2023-03-30T16:53:50.606Z,4.28
2023-03-30T16:56:19.869Z,4.20
2023-03-30T16:58:48.495Z,4.55
2023-03-30T17:01:18.567Z,5.20
2023-03-30T17:03:47.514Z,5.40
2023-03-30T17:06:16.959Z,5.80
2023-03-30T17:08:45.866Z,6.22
2023-03-30T17:11:15.902Z,6.32
2023-03-30T17:13:46.146Z,6.63
2023-03-30T17:16:15.890Z,6.53
2023-03-30T17:18:44.093Z,6.65
2023-03-30T17:21:17.226Z,6.13
2023-03-30T17:23:47.632Z,6.47
2023-03-30T17:26:17.897Z,7.05
2023-03-30T17:28:46.338Z,6.00
2023-03-30T17:31:19.431Z,5.20
2023-03-30T17:33:48.092Z,5.82
2023-03-30T17:36:19.730Z,4.63
2023-03-30T17:38:49.023Z,5.22
2023-03-30T17:41:19.858Z,5.20
2023-03-30T17:43:49.012Z,5.57
2023-03-30T17:46:19.362Z,4.88
2023-03-30T17:48:47.686Z,5.55
2023-03-30T17:51:15.862Z,5.72
2023-03-30T17:53:44.033Z,6.00
2023-03-30T17:56:14.098Z,6.28
2023-03-30T17:58:43.719Z,7.18
2023-03-30T18:01:12.904Z,8.05
2023-03-30T18:03:42.528Z,8.13
2023-03-30T18:06:12.769Z,8.43
2023-03-30T18:08:42.862Z,7.13
2023-03-30T18:11:11.331Z,8.40
2023-03-30T18:13:39.565Z,10.63
2023-03-30T18:16:12.575Z,9.48
2023-03-30T18:18:41.167Z,8.82
2023-03-30T18:21:11.457Z,7.63
2023-03-30T18:23:39.620Z,8.90
2023-03-30T18:26:12.071Z,8.80
2023-03-30T18:28:44.064Z,9.55
2023-03-30T18:31:14.134Z,9.55
2023-03-30T18:33:42.970Z,8.52
2023-03-30T18:36:12.798Z,11.00
2023-03-30T18:38:41.487Z,13.23
2023-03-30T18:41:12.277Z,11.68
2023-03-30T18:43:40.486Z,8.82
2023-03-30T18:46:15.905Z,8.43
2023-03-30T18:48:44.196Z,7.88
2023-03-30T18:51:13.074Z,8.45
2023-03-30T18:53:41.455Z,9.00
2023-03-30T18:56:13.529Z,8.75
2023-03-30T18:58:42.841Z,11.20
2023-03-30T19:01:13.132Z,9.15
2023-03-30T19:03:44.835Z,7.45
2023-03-30T19:06:16.428Z,8.90
2023-03-30T19:08:44.622Z,6.72
2023-03-30T19:11:17.447Z,7.10
2023-03-30T19:13:47.070Z,5.82
2023-03-30T19:16:18.640Z,6.57
2023-03-30T19:18:49.328Z,5.57
2023-03-30T19:21:19.049Z,7.35
2023-03-30T19:23:47.323Z,6.13
2023-03-30T19:26:15.540Z,6.43
2023-03-30T19:28:43.768Z,7.32
2023-03-30T19:31:16.410Z,7.28
2023-03-30T19:33:44.852Z,8.02
2023-03-30T19:36:14.442Z,7.80
2023-03-30T19:38:46.429Z,6.70
2023-03-30T19:41:15.278Z,7.15
2023-03-30T19:43:43.487Z,8.20
2023-03-30T19:46:13.676Z,8.25
2023-03-30T19:48:41.934Z,8.05
2023-03-30T19:51:10.109Z,6.82
2023-03-30T19:53:39.625Z,7.07
2023-03-30T19:56:10.234Z,7.22
2023-03-30T19:58:44.477Z,7.43
2023-03-30T20:01:13.509Z,7.53
2023-03-30T20:03:41.791Z,6.30
2023-03-30T20:06:11.600Z,6.25
2023-03-30T20:08:43.318Z,7.38
2023-03-30T20:11:12.464Z,5.78
2023-03-30T20:13:45.316Z,5.85
2023-03-30T20:16:22.883Z,4.38
2023-03-30T20:18:57.467Z,6.78
2023-03-30T20:21:26.952Z,8.13
2023-03-30T20:23:58.818Z,8.75
2023-03-30T20:26:27.584Z,7.15
2023-03-30T20:28:56.524Z,6.57
2023-03-30T20:31:25.646Z,6.82
2023-03-30T20:33:54.600Z,6.75
2023-03-30T20:36:25.268Z,6.65
2023-03-30T20:38:54.763Z,5.82
2023-03-30T20:41:25.928Z,9.35
2023-03-30T20:43:57.262Z,7.85
2023-03-30T20:46:36.370Z,8.10
2023-03-30T20:49:17.836Z,5.32
2023-03-30T20:51:46.393Z,7.85
2023-03-30T20:54:16.650Z,7.88
2023-03-30T20:56:51.244Z,5.93
2023-03-30T20:59:19.413Z,9.55
2023-03-30T21:01:52.867Z,8.18
2023-03-30T21:04:22.731Z,8.82
2023-03-30T21:06:51.668Z,7.90
2023-03-30T21:09:20.318Z,7.05
2023-03-30T21:11:50.456Z,8.15
2023-03-30T21:14:18.651Z,7.15
2023-03-30T21:16:46.863Z,6.50
2023-03-30T21:19:15.129Z,7.75
2023-03-30T21:21:43.423Z,7.25
2023-03-30T21:24:13.857Z,7.82
2023-03-30T21:26:42.112Z,6.78
2023-03-30T21:29:11.702Z,7.50
2023-03-30T21:31:39.932Z,5.63
2023-03-30T21:34:09.274Z,7.50
2023-03-30T21:36:39.229Z,7.05
2023-03-30T21:39:07.744Z,7.05
2023-03-30T21:41:36.226Z,6.38
2023-03-30T21:44:04.434Z,6.63
2023-03-30T21:46:34.048Z,6.80
2023-03-30T21:49:17.432Z,6.78
2023-03-30T21:51:46.929Z,6.55
2023-03-30T21:54:15.948Z,6.85
2023-03-30T21:56:44.282Z,7.25
2023-03-30T21:59:12.796Z,7.15
2023-03-30T22:01:42.487Z,6.50
2023-03-30T22:04:10.990Z,6.25
2023-03-30T22:06:39.329Z,6.70
2023-03-30T22:09:07.504Z,6.47
2023-03-30T22:11:35.726Z,6.30
2023-03-30T22:14:03.912Z,6.40
2023-03-30T22:16:33.265Z,7.00
2023-03-30T22:19:02.985Z,5.72
2023-03-30T22:21:33.941Z,6.22
2023-03-30T22:24:04.544Z,6.90
2023-03-30T22:26:33.077Z,6.40
2023-03-30T22:29:01.386Z,7.28
2023-03-30T22:31:29.607Z,7.25
2023-03-30T22:33:57.858Z,7.05
2023-03-30T22:36:29.864Z,6.30
2023-03-30T22:38:59.550Z,6.90
2023-03-30T22:41:28.479Z,7.25
2023-03-30T22:43:58.262Z,6.80
2023-03-30T22:46:47.527Z,6.85
2023-03-30T22:49:18.362Z,6.82
2023-03-30T22:51:52.560Z,6.93
2023-03-30T22:54:21.719Z,7.32
2023-03-30T22:56:50.361Z,7.85
2023-03-30T22:59:18.579Z,9.20
2023-03-30T23:01:46.800Z,8.45
2023-03-30T23:04:16.992Z,8.88
2023-03-30T23:06:45.553Z,6.72
2023-03-30T23:09:16.130Z,5.78
2023-03-30T23:11:45.747Z,5.13
2023-03-30T23:14:14.514Z,5.72
2023-03-30T23:16:42.714Z,6.25
2023-03-30T23:19:12.087Z,4.25
2023-03-30T23:21:40.927Z,4.90
2023-03-30T23:24:12.355Z,7.25
2023-03-30T23:26:42.118Z,4.75
2023-03-30T23:29:11.292Z,4.22
2023-03-30T23:31:39.524Z,7.25
2023-03-30T23:34:09.107Z,6.43
2023-03-30T23:36:37.302Z,4.68
2023-03-30T23:39:05.580Z,4.72
2023-03-30T23:41:33.838Z,7.32
2023-03-30T23:44:03.388Z,7.45
2023-03-30T23:46:31.807Z,7.97
2023-03-30T23:49:00.038Z,5.15
2023-03-30T23:51:28.449Z,7.07
2023-03-30T23:54:00.095Z,7.53
2023-03-30T23:56:29.991Z,4.80
2023-03-30T23:58:59.096Z,6.55
